Flag for USA

Past Weather in 36°05'40"N, 79°59'27"W, USA — Yesterday and Last 2 Weeks

Currently: 38 °F. Clear. (Weather station: Smith Reynolds Airport, USA). See more current weather

Past Weather in 36°05'40"N, 79°59'27"W — Graph

°F

36°05'40"N, 79°59'27"W Temperature Yesterday

Maximum temperature yesterday: 46 °F (at 12:01 pm)
Minimum temperature yesterday: 32 °F (at 2:54 am)
Average temperature yesterday: 37 °F

High & Low Weather Summary for the Past Weeks

 TemperatureHumidityPressure
High53 °F (Jan 12, 3:54 pm)100% (Jan 1, 6:01 pm)30.35 "Hg (Jan 1, 6:01 pm)
Low24 °F (Jan 13, 6:54 am)37% (Jan 14, 3:54 pm)29.61 "Hg (Jan 16, 6:07 am)
Average39 °F81%30.00 "Hg
* Reported Jan 1 6:01 pm — Jan 16 6:54 pm, 36°05'40"N, 79°59'27"W. Weather by CustomWeather, © 2021

Note: Actual official high and low records may vary slightly from our data, if they occured in-between our weather recording intervals... More about our weather records

36°05'40"N, 79°59'27"W Weather History for the Previous 24 Hours

Scroll right to see more
 ConditionsComfort  
Time TempWeatherWind HumidityBarometerVisibility
6:54 pm
Sat, Jan 16
38 °FClear.6 mph53%29.78 "Hg10 mi
5:54 pm40 °FClear.8 mph49%29.75 "Hg10 mi
4:54 pm42 °FScattered clouds.14 mph41%29.71 "Hg10 mi
3:54 pm43 °FPassing clouds.16 mph42%29.67 "Hg10 mi
2:54 pm42 °FPartly sunny.13 mph51%29.63 "Hg8 mi
1:54 pm42 °FOvercast.13 mph47%29.62 "Hg10 mi
12:54 pm42 °FSunny.10 mph57%29.62 "Hg10 mi
11:54 am38 °FBroken clouds.6 mph83%29.65 "Hg10 mi
10:54 am35 °FMore clouds than sun.6 mph100%29.66 "Hg10 mi
10:39 am35 °FMore clouds than sun.7 mph96%29.66 "Hg10 mi
10:08 am33 °FMostly cloudy.5 mph100%29.65 "Hg7 mi
10:01 am32 °FOvercast.5 mph100%29.65 "Hg7 mi
8:54 am31 °FIce fog.5 mph100%29.66 "Hg4 mi
8:26 am31 °FIce fog.6 mph100%29.64 "Hg4 mi
8:12 am31 °FIce fog.3 mph100%29.64 "Hg2 mi
7:54 am31 °FIce fog.3 mph100%29.64 "Hg3 mi
7:31 am31 °FIce fog.No wind100%29.62 "Hg4 mi
7:05 am31 °FIce fog.3 mph100%29.62 "Hg3 mi
6:28 am30 °FIce fog.3 mph100%29.62 "Hg1 mi
6:07 am30 °FIce fog.No wind100%29.61 "Hg0 mi
5:54 am30 °FIce fog.No wind100%29.63 "Hg1 mi
4:54 am30 °FIce fog.3 mph100%29.63 "Hg0 mi
3:54 am29 °FIce fog.No wind100%29.64 "Hg0 mi
2:54 am31 °FIce fog.No wind100%29.66 "Hg0 mi
1:54 am31 °FIce fog.3 mph100%29.65 "Hg0 mi
1:31 am32 °FFog.No wind100%29.65 "Hg0 mi
1:22 am33 °FFog.No wind100%29.65 "Hg1 mi
1:12 am33 °FFog.No wind100%29.65 "Hg1 mi
1:01 am33 °FFog.No wind100%29.66 "Hg2 mi
12:30 am35 °FFog.6 mph96%29.68 "Hg6 mi
11:54 pm
Fri, Jan 15
35 °FClear.No wind96%29.69 "Hg8 mi
11:14 pm36 °FMostly cloudy.3 mph100%29.70 "Hg9 mi
10:54 pm35 °FLight rain. Fog.8 mph100%29.72 "Hg4 mi
10:28 pm34 °FFog.8 mph100%29.72 "Hg1 mi
9:54 pm35 °FFog.5 mph100%29.72 "Hg0 mi
8:54 pm36 °FFog.5 mph100%29.72 "Hg0 mi
Weather by CustomWeather, © 2021

See weather overview